Time;durP1;ratioP1;P1;durP2;ratioP2;P2;SDS_P1;SDS_P2;PMS_P1;PMS_P2;Temp;Humidity;BMP_temperature;BMP_pressure;BME280_temperature;BME280_humidity;BME280_pressure;Samples;Min_cycle;Max_cycle;Signal;HPM_P1;HPM_P2
2021/09/21 00:01:53;;;;;;;;;25.67;25.67;;;;;;;;5038578;28;9389;-89
2021/09/21 00:04:26;;;;;;;;;48.25;37.00;;;;;;;;5040789;28;9362;-89
2021/09/21 00:06:54;;;;;;;;;35.25;33.50;;;;;;;;5043864;28;9700;-90
2021/09/21 00:09:21;;;;;;;;;36.75;32.75;;;;;;;;5026150;28;9609;-90
2021/09/21 00:11:49;;;;;;;;;34.50;32.50;;;;;;;;5044913;28;9562;-89
2021/09/21 00:14:18;;;;;;;;;37.75;33.00;;;;;;;;5044423;28;9652;-89
2021/09/21 00:16:45;;;;;;;;;34.00;33.00;;;;;;;;5041899;28;9707;-91
2021/09/21 00:19:12;;;;;;;;;39.00;35.00;;;;;;;;5045094;28;9777;-91
2021/09/21 00:21:39;;;;;;;;;41.25;36.00;;;;;;;;5043112;28;9771;-89
2021/09/21 00:24:07;;;;;;;;;32.50;31.50;;;;;;;;5043609;28;9817;-89
2021/09/21 00:26:34;;;;;;;;;40.50;34.00;;;;;;;;5043612;28;9746;-92
2021/09/21 00:29:01;;;;;;;;;42.00;36.50;;;;;;;;5043153;28;9727;-89
2021/09/21 00:31:37;;;;;;;;;36.25;33.50;;;;;;;;5042256;28;9872;-87
2021/09/21 00:34:08;;;;;;;;;41.50;33.25;;;;;;;;5043239;28;9892;-92
2021/09/21 00:36:36;;;;;;;;;42.75;37.25;;;;;;;;5044674;28;9789;-93
2021/09/21 00:39:06;;;;;;;;;40.25;35.75;;;;;;;;5042882;28;9791;-90
2021/09/21 00:41:34;;;;;;;;;39.00;36.25;;;;;;;;5044614;28;9894;-90
2021/09/21 00:44:01;;;;;;;;;45.50;37.25;;;;;;;;5034461;28;9741;-91
2021/09/21 00:46:30;;;;;;;;;39.00;34.25;;;;;;;;5041941;28;9776;-84
2021/09/21 00:48:58;;;;;;;;;50.00;40.00;;;;;;;;5044779;28;9937;-82
2021/09/21 00:51:25;;;;;;;;;41.00;36.50;;;;;;;;5043831;28;9924;-91
2021/09/21 00:53:53;;;;;;;;;40.50;35.50;;;;;;;;5041873;28;9794;-92
2021/09/21 00:56:21;;;;;;;;;46.25;39.75;;;;;;;;5043559;28;9910;-93
2021/09/21 00:58:48;;;;;;;;;41.50;37.50;;;;;;;;5040780;28;9979;-88
2021/09/21 01:01:16;;;;;;;;;43.75;37.75;;;;;;;;5017997;28;9845;-89
2021/09/21 01:03:44;;;;;;;;;41.25;36.50;;;;;;;;5044466;28;9893;-82
2021/09/21 01:06:12;;;;;;;;;40.50;37.25;;;;;;;;5044088;28;10079;-90
2021/09/21 01:08:41;;;;;;;;;38.50;34.50;;;;;;;;5025085;28;10062;-92
2021/09/21 01:11:10;;;;;;;;;38.75;35.00;;;;;;;;5041774;28;10695;-92
2021/09/21 01:13:37;;;;;;;;;44.00;36.75;;;;;;;;5043415;28;9934;-91
2021/09/21 01:16:05;;;;;;;;;42.25;34.75;;;;;;;;5044015;28;9686;-91
2021/09/21 01:18:33;;;;;;;;;41.75;36.75;;;;;;;;5042978;28;9764;-93
2021/09/21 01:21:04;;;;;;;;;45.75;38.75;;;;;;;;5044759;28;9897;-82
2021/09/21 01:23:33;;;;;;;;;48.75;39.75;;;;;;;;5043697;28;9932;-85
2021/09/21 01:26:00;;;;;;;;;38.25;34.50;;;;;;;;5043349;28;9792;-88
2021/09/21 01:28:27;;;;;;;;;42.75;38.50;;;;;;;;5043991;28;9715;-89
2021/09/21 01:30:55;;;;;;;;;48.50;40.25;;;;;;;;5042552;28;9699;-89
2021/09/21 01:33:22;;;;;;;;;47.50;38.25;;;;;;;;5037307;28;9870;-90
2021/09/21 01:35:50;;;;;;;;;48.50;38.25;;;;;;;;5042831;28;10069;-92
2021/09/21 01:38:17;;;;;;;;;43.50;38.75;;;;;;;;5043556;28;9788;-86
2021/09/21 01:40:46;;;;;;;;;46.50;39.50;;;;;;;;5042965;28;9957;-90
2021/09/21 01:43:13;;;;;;;;;51.50;40.00;;;;;;;;5043801;28;9873;-92
2021/09/21 01:45:40;;;;;;;;;45.25;39.00;;;;;;;;5045877;28;9959;-86
2021/09/21 01:48:07;;;;;;;;;47.75;40.00;;;;;;;;5058467;28;9755;-91
2021/09/21 01:50:40;;;;;;;;;46.25;39.50;;;;;;;;5051946;28;9877;-92
2021/09/21 01:53:15;;;;;;;;;38.50;36.75;;;;;;;;5035625;28;9858;-92
2021/09/21 01:58:47;;;;;;;;;43.75;38.50;;;;;;;;5043712;28;9953;-91
2021/09/21 02:01:15;;;;;;;;;39.25;36.25;;;;;;;;5034893;28;10115;-92
2021/09/21 02:03:43;;;;;;;;;45.00;40.50;;;;;;;;5044500;28;9792;-93
2021/09/21 02:06:11;;;;;;;;;54.25;41.75;;;;;;;;5044537;28;9947;-87
2021/09/21 02:08:38;;;;;;;;;52.75;40.00;;;;;;;;5033329;28;9931;-93
2021/09/21 02:11:06;;;;;;;;;52.75;40.50;;;;;;;;5043741;28;10054;-92
2021/09/21 02:13:35;;;;;;;;;49.75;42.50;;;;;;;;5036872;28;10131;-92
2021/09/21 02:16:03;;;;;;;;;42.75;37.50;;;;;;;;5044940;28;11076;-91
2021/09/21 02:18:30;;;;;;;;;51.25;43.75;;;;;;;;5046441;28;10213;-90
2021/09/21 02:20:57;;;;;;;;;51.75;42.75;;;;;;;;5047249;28;10237;-91
2021/09/21 02:23:25;;;;;;;;;54.50;44.75;;;;;;;;5027286;28;10171;-84
2021/09/21 02:25:52;;;;;;;;;51.25;43.75;;;;;;;;5047281;28;10219;-91
2021/09/21 02:28:19;;;;;;;;;54.25;42.75;;;;;;;;5037127;28;10462;-92
2021/09/21 02:30:48;;;;;;;;;53.25;44.00;;;;;;;;5043097;28;10291;-89
2021/09/21 02:33:15;;;;;;;;;51.75;44.75;;;;;;;;5046819;28;10140;-88
2021/09/21 02:35:43;;;;;;;;;45.75;40.50;;;;;;;;5025410;28;10275;-91
2021/09/21 02:38:10;;;;;;;;;56.50;46.00;;;;;;;;5046414;28;10133;-92
2021/09/21 02:40:39;;;;;;;;;50.50;40.50;;;;;;;;5046386;28;10225;-91
2021/09/21 02:43:06;;;;;;;;;45.00;39.75;;;;;;;;5042774;28;10358;-88
2021/09/21 02:45:34;;;;;;;;;56.00;45.25;;;;;;;;5041997;28;10029;-92
2021/09/21 02:48:03;;;;;;;;;51.25;41.00;;;;;;;;5045702;28;10492;-89
2021/09/21 02:50:30;;;;;;;;;52.00;40.75;;;;;;;;5046668;28;10019;-94
2021/09/21 02:52:57;;;;;;;;;48.25;41.75;;;;;;;;5045133;28;10185;-85
2021/09/21 02:55:25;;;;;;;;;56.75;43.25;;;;;;;;5044228;28;10285;-93
2021/09/21 02:57:52;;;;;;;;;53.25;44.00;;;;;;;;5045155;28;10367;-88
2021/09/21 03:00:23;;;;;;;;;56.25;45.50;;;;;;;;5045926;28;10483;-87
2021/09/21 03:02:50;;;;;;;;;50.50;42.00;;;;;;;;5048712;28;10404;-91
2021/09/21 03:05:22;;;;;;;;;47.25;41.00;;;;;;;;5057755;28;10262;-88
2021/09/21 03:07:54;;;;;;;;;47.25;41.00;;;;;;;;5046256;28;10343;-92
2021/09/21 03:10:31;;;;;;;;;49.25;43.00;;;;;;;;5041946;28;10119;-90
2021/09/21 03:18:40;;;;;;;;;53.50;42.50;;;;;;;;5044882;28;10521;-90
2021/09/21 03:21:09;;;;;;;;;55.50;44.25;;;;;;;;5045941;28;11000;-88
2021/09/21 03:23:36;;;;;;;;;48.25;40.25;;;;;;;;5045012;28;10590;-91
2021/09/21 03:26:03;;;;;;;;;47.75;41.00;;;;;;;;5039138;28;10374;-88
2021/09/21 03:28:31;;;;;;;;;54.00;42.25;;;;;;;;5041737;28;10455;-86
2021/09/21 03:30:58;;;;;;;;;58.00;48.25;;;;;;;;5044034;28;10300;-86
2021/09/21 03:33:25;;;;;;;;;52.50;42.00;;;;;;;;5045491;28;10594;-86
2021/09/21 03:35:52;;;;;;;;;46.25;38.00;;;;;;;;5045264;28;10283;-87
2021/09/21 03:38:21;;;;;;;;;39.50;37.75;;;;;;;;5044377;28;10213;-87
2021/09/21 03:40:49;;;;;;;;;49.50;39.00;;;;;;;;5042739;28;10215;-91
2021/09/21 03:43:16;;;;;;;;;51.75;41.75;;;;;;;;5039896;28;10391;-88
2021/09/21 03:45:43;;;;;;;;;45.00;40.25;;;;;;;;5037780;28;10417;-81
2021/09/21 03:48:10;;;;;;;;;46.50;41.00;;;;;;;;5045809;28;10516;-76
2021/09/21 03:50:37;;;;;;;;;53.25;41.75;;;;;;;;5043592;28;10644;-74
2021/09/21 03:53:05;;;;;;;;;41.00;38.50;;;;;;;;5044332;28;11139;-78
2021/09/21 03:55:34;;;;;;;;;42.25;39.25;;;;;;;;5045284;28;10244;-90
2021/09/21 03:58:01;;;;;;;;;46.25;37.75;;;;;;;;5043779;28;10473;-92
2021/09/21 04:00:29;;;;;;;;;39.50;37.00;;;;;;;;5027068;28;10200;-92
2021/09/21 04:02:56;;;;;;;;;43.25;36.25;;;;;;;;5044681;28;10406;-94
2021/09/21 04:05:23;;;;;;;;;47.75;38.75;;;;;;;;5044294;28;10395;-90
2021/09/21 04:07:51;;;;;;;;;38.50;34.50;;;;;;;;5048631;28;10146;-88
2021/09/21 04:10:19;;;;;;;;;46.50;37.50;;;;;;;;5047689;28;10287;-86
2021/09/21 04:12:47;;;;;;;;;41.00;37.75;;;;;;;;5043931;28;10437;-88
2021/09/21 04:15:14;;;;;;;;;37.25;33.50;;;;;;;;5038926;28;10465;-80
2021/09/21 04:17:42;;;;;;;;;39.50;36.75;;;;;;;;5044814;28;10247;-89
2021/09/21 04:20:10;;;;;;;;;40.25;37.50;;;;;;;;5042612;28;10334;-87
2021/09/21 04:22:39;;;;;;;;;42.75;35.25;;;;;;;;5044130;28;10566;-87
2021/09/21 04:25:07;;;;;;;;;33.75;30.50;;;;;;;;5034665;28;10857;-88
2021/09/21 04:27:35;;;;;;;;;43.25;38.00;;;;;;;;5041151;28;10299;-86
2021/09/21 04:30:04;;;;;;;;;45.00;37.75;;;;;;;;5044395;28;10451;-90
2021/09/21 04:32:32;;;;;;;;;32.75;32.75;;;;;;;;5035925;28;10610;-92
2021/09/21 04:35:00;;;;;;;;;38.50;33.75;;;;;;;;5042208;28;10285;-95
2021/09/21 04:37:28;;;;;;;;;42.75;38.50;;;;;;;;5043983;28;10539;-95
2021/09/21 04:39:55;;;;;;;;;43.50;38.25;;;;;;;;5049773;28;10405;-88
2021/09/21 04:42:25;;;;;;;;;44.75;38.25;;;;;;;;5040150;28;10543;-81
2021/09/21 04:44:52;;;;;;;;;38.25;35.00;;;;;;;;5037381;28;10473;-87
2021/09/21 04:47:21;;;;;;;;;34.00;32.00;;;;;;;;5036441;28;10291;-89
2021/09/21 04:49:48;;;;;;;;;45.50;38.75;;;;;;;;5042589;28;10354;-89
2021/09/21 04:52:16;;;;;;;;;35.50;33.75;;;;;;;;5040086;28;10345;-89
2021/09/21 04:54:43;;;;;;;;;34.75;33.00;;;;;;;;5027147;28;10472;-89
2021/09/21 04:57:10;;;;;;;;;36.75;33.75;;;;;;;;5040375;28;10344;-84
2021/09/21 04:59:38;;;;;;;;;26.75;26.00;;;;;;;;5031635;28;10391;-81
2021/09/21 05:02:05;;;;;;;;;35.00;32.50;;;;;;;;5037161;28;10204;-89
2021/09/21 05:04:34;;;;;;;;;37.00;33.25;;;;;;;;5040272;28;10333;-84
2021/09/21 05:07:01;;;;;;;;;37.50;34.25;;;;;;;;5040181;28;10367;-90
2021/09/21 05:09:28;;;;;;;;;35.25;31.75;;;;;;;;5024760;28;10315;-87
2021/09/21 05:11:56;;;;;;;;;24.25;24.25;;;;;;;;5040548;28;10437;-90
2021/09/21 05:14:23;;;;;;;;;31.50;30.00;;;;;;;;5027439;28;10253;-92
2021/09/21 05:16:50;;;;;;;;;31.25;29.75;;;;;;;;5043276;28;10316;-92
2021/09/21 05:19:17;;;;;;;;;26.50;25.50;;;;;;;;5035758;28;10381;-90
2021/09/21 05:21:46;;;;;;;;;29.25;28.25;;;;;;;;5041535;28;10334;-82
2021/09/21 05:24:14;;;;;;;;;26.75;24.00;;;;;;;;5043334;28;10282;-76
2021/09/21 05:26:41;;;;;;;;;32.50;26.25;;;;;;;;5040346;28;11055;-80
2021/09/21 05:29:08;;;;;;;;;32.25;32.25;;;;;;;;5042361;28;10411;-80
2021/09/21 05:31:39;;;;;;;;;31.25;29.00;;;;;;;;5041009;28;10312;-83
2021/09/21 05:34:06;;;;;;;;;33.00;30.75;;;;;;;;5042275;28;10260;-81
2021/09/21 05:36:34;;;;;;;;;27.50;26.50;;;;;;;;5042715;28;10287;-82
2021/09/21 05:39:03;;;;;;;;;29.25;26.50;;;;;;;;5041851;28;10125;-84
2021/09/21 05:41:30;;;;;;;;;30.25;29.50;;;;;;;;5043009;28;10266;-80
2021/09/21 05:43:57;;;;;;;;;27.75;27.75;;;;;;;;5024407;28;10883;-84
2021/09/21 05:46:25;;;;;;;;;31.25;27.00;;;;;;;;5042913;28;10128;-82
2021/09/21 05:48:53;;;;;;;;;29.25;28.75;;;;;;;;5025764;28;10075;-82
2021/09/21 05:51:20;;;;;;;;;25.50;25.50;;;;;;;;5046641;28;10391;-75
2021/09/21 05:53:48;;;;;;;;;27.75;26.75;;;;;;;;5047004;28;10264;-82
2021/09/21 05:56:16;;;;;;;;;25.00;22.25;;;;;;;;5047062;28;10268;-80
2021/09/21 05:58:44;;;;;;;;;19.25;19.25;;;;;;;;5036198;28;10243;-81
2021/09/21 06:01:11;;;;;;;;;29.25;28.50;;;;;;;;5043741;28;10271;-73
2021/09/21 06:03:38;;;;;;;;;30.00;23.00;;;;;;;;5047129;28;10476;-72
2021/09/21 06:06:06;;;;;;;;;26.50;26.50;;;;;;;;5041269;28;11300;-73
2021/09/21 06:08:34;;;;;;;;;24.00;24.00;;;;;;;;5044497;28;10535;-72
2021/09/21 06:11:01;;;;;;;;;24.75;24.75;;;;;;;;5041720;28;10286;-72
2021/09/21 06:13:30;;;;;;;;;28.00;23.75;;;;;;;;5042846;28;10406;-72
2021/09/21 06:15:57;;;;;;;;;30.25;25.75;;;;;;;;5046150;28;10243;-72
2021/09/21 06:18:24;;;;;;;;;27.50;26.00;;;;;;;;5045679;28;11039;-71
2021/09/21 06:20:52;;;;;;;;;27.25;25.75;;;;;;;;5046494;28;10311;-72
2021/09/21 06:23:19;;;;;;;;;25.25;25.25;;;;;;;;5045757;28;10198;-72
2021/09/21 06:25:47;;;;;;;;;32.00;24.00;;;;;;;;5045246;28;10273;-72
2021/09/21 06:28:14;;;;;;;;;27.25;26.50;;;;;;;;5044417;28;10174;-72
2021/09/21 06:30:44;;;;;;;;;21.00;21.00;;;;;;;;5044324;28;9956;-72
2021/09/21 06:33:11;;;;;;;;;26.25;25.50;;;;;;;;5045497;28;10193;-72
2021/09/21 06:35:39;;;;;;;;;24.50;21.75;;;;;;;;5026977;28;10037;-72
2021/09/21 06:38:06;;;;;;;;;25.25;25.25;;;;;;;;5045557;28;10196;-71
2021/09/21 06:40:33;;;;;;;;;20.00;20.00;;;;;;;;5044125;28;10271;-72
2021/09/21 06:43:00;;;;;;;;;19.25;19.25;;;;;;;;5045936;28;10225;-72
2021/09/21 06:45:27;;;;;;;;;23.50;20.75;;;;;;;;5045307;28;10045;-72
2021/09/21 06:47:56;;;;;;;;;26.00;22.25;;;;;;;;5045992;28;10248;-72
2021/09/21 06:50:23;;;;;;;;;20.25;20.25;;;;;;;;5045607;28;10930;-72
2021/09/21 06:52:51;;;;;;;;;21.75;18.25;;;;;;;;5044934;28;10129;-72
2021/09/21 06:55:18;;;;;;;;;25.25;21.75;;;;;;;;5044628;28;9953;-72
2021/09/21 06:57:50;;;;;;;;;21.25;20.00;;;;;;;;5043340;28;10108;-73
2021/09/21 07:00:18;;;;;;;;;18.25;17.75;;;;;;;;5038000;28;9986;-72
2021/09/21 07:02:47;;;;;;;;;16.00;16.00;;;;;;;;5044906;28;9927;-71
2021/09/21 07:05:16;;;;;;;;;21.00;19.50;;;;;;;;5045006;28;9843;-72
2021/09/21 07:07:45;;;;;;;;;19.75;16.25;;;;;;;;5044685;28;9872;-72
2021/09/21 07:10:14;;;;;;;;;16.00;16.00;;;;;;;;5044454;28;9795;-73
2021/09/21 07:12:41;;;;;;;;;13.75;13.25;;;;;;;;5045807;28;9809;-71
2021/09/21 07:15:10;;;;;;;;;15.50;15.50;;;;;;;;5044074;28;9839;-72
2021/09/21 07:17:37;;;;;;;;;14.75;14.00;;;;;;;;5045807;28;9867;-72
2021/09/21 07:20:06;;;;;;;;;16.75;16.75;;;;;;;;5045164;28;9718;-73
2021/09/21 07:22:35;;;;;;;;;13.50;11.50;;;;;;;;5044836;28;9609;-72
2021/09/21 07:25:02;;;;;;;;;15.50;14.50;;;;;;;;5045444;28;9592;-73
2021/09/21 07:27:29;;;;;;;;;13.75;13.75;;;;;;;;5044277;28;9568;-73
2021/09/21 07:29:56;;;;;;;;;11.50;11.50;;;;;;;;5044869;28;9482;-73
2021/09/21 07:32:23;;;;;;;;;16.75;15.00;;;;;;;;5043886;28;9496;-72
2021/09/21 07:34:51;;;;;;;;;12.50;11.00;;;;;;;;5044863;28;9537;-73
2021/09/21 07:37:18;;;;;;;;;17.33;14.00;;;;;;;;5044465;28;9534;-72
2021/09/21 07:39:47;;;;;;;;;14.00;13.33;;;;;;;;5043946;28;9289;-72
2021/09/21 07:42:17;;;;;;;;;11.75;11.75;;;;;;;;5045822;28;9488;-72
2021/09/21 07:44:44;;;;;;;;;8.25;7.25;;;;;;;;5025143;28;9411;-72
2021/09/21 07:47:12;;;;;;;;;9.00;9.00;;;;;;;;5045312;28;9586;-72
2021/09/21 07:49:39;;;;;;;;;16.00;12.33;;;;;;;;5025578;28;9415;-72
2021/09/21 07:52:06;;;;;;;;;11.67;10.00;;;;;;;;5045022;28;9266;-73
2021/09/21 07:54:34;;;;;;;;;11.00;10.33;;;;;;;;5040884;28;9179;-72
2021/09/21 07:57:02;;;;;;;;;14.67;12.67;;;;;;;;5045007;28;9199;-72
2021/09/21 07:59:30;;;;;;;;;16.00;14.67;;;;;;;;5044173;28;9012;-72
2021/09/21 08:01:57;;;;;;;;;18.00;15.67;;;;;;;;5033961;28;9046;-72
2021/09/21 08:04:24;;;;;;;;;8.00;8.00;;;;;;;;5042189;28;9316;-72
2021/09/21 08:06:51;;;;;;;;;17.33;14.00;;;;;;;;5023012;28;9163;-72
2021/09/21 08:09:19;;;;;;;;;9.00;9.00;;;;;;;;5038392;28;9201;-73
2021/09/21 08:11:46;;;;;;;;;10.00;10.00;;;;;;;;5043898;28;9160;-73
2021/09/21 08:14:15;;;;;;;;;15.25;11.75;;;;;;;;5041260;28;9045;-73
2021/09/21 08:16:42;;;;;;;;;11.00;9.00;;;;;;;;5043671;28;8852;-73
2021/09/21 08:19:09;;;;;;;;;12.00;10.50;;;;;;;;5043869;28;8962;-73
2021/09/21 08:21:37;;;;;;;;;12.25;10.00;;;;;;;;5044463;28;8848;-74
2021/09/21 08:24:05;;;;;;;;;11.25;9.25;;;;;;;;5025947;28;8868;-73
2021/09/21 08:26:33;;;;;;;;;10.50;10.25;;;;;;;;5038430;28;8978;-73
2021/09/21 08:29:00;;;;;;;;;14.25;10.25;;;;;;;;5037078;28;8864;-72
2021/09/21 08:31:28;;;;;;;;;9.25;6.75;;;;;;;;5043402;28;8788;-75
2021/09/21 08:33:56;;;;;;;;;9.75;9.75;;;;;;;;5044479;28;8872;-72
2021/09/21 08:36:23;;;;;;;;;13.25;13.25;;;;;;;;5042907;28;8949;-75
2021/09/21 08:38:51;;;;;;;;;13.00;13.00;;;;;;;;5042540;28;8852;-73
2021/09/21 08:41:18;;;;;;;;;9.75;9.75;;;;;;;;5025880;28;8965;-72
2021/09/21 08:43:46;;;;;;;;;11.00;11.00;;;;;;;;5044058;28;8864;-74
2021/09/21 08:46:13;;;;;;;;;13.50;13.25;;;;;;;;5037488;28;8859;-74
2021/09/21 08:48:42;;;;;;;;;11.50;11.25;;;;;;;;5045026;28;8857;-74
2021/09/21 08:51:09;;;;;;;;;11.00;11.00;;;;;;;;5040758;28;8809;-73
2021/09/21 08:53:37;;;;;;;;;12.75;12.75;;;;;;;;5040017;28;8863;-74
2021/09/21 08:56:04;;;;;;;;;14.00;12.50;;;;;;;;5038853;28;8832;-73
2021/09/21 08:58:32;;;;;;;;;14.75;14.75;;;;;;;;5038793;28;8860;-73
2021/09/21 09:01:10;;;;;;;;;14.00;12.25;;;;;;;;5042096;28;8947;-74
2021/09/21 09:03:38;;;;;;;;;12.00;12.00;;;;;;;;5033722;28;8886;-75
2021/09/21 09:06:08;;;;;;;;;11.00;11.00;;;;;;;;5035633;28;9536;-74
2021/09/21 09:08:38;;;;;;;;;12.75;12.75;;;;;;;;5024376;28;8852;-72
2021/09/21 09:11:14;;;;;;;;;13.25;13.25;;;;;;;;5024027;28;8875;-75
2021/09/21 09:13:41;;;;;;;;;14.25;14.25;;;;;;;;5042474;28;9051;-73
2021/09/21 09:16:13;;;;;;;;;12.50;10.75;;;;;;;;5041987;28;8863;-74
2021/09/21 09:18:41;;;;;;;;;14.25;14.25;;;;;;;;5042887;28;8875;-74
2021/09/21 09:21:11;;;;;;;;;12.00;12.00;;;;;;;;5031316;28;9674;-73
2021/09/21 09:23:47;;;;;;;;;14.25;13.00;;;;;;;;5028852;28;8953;-74
2021/09/21 09:26:17;;;;;;;;;13.75;13.75;;;;;;;;5046516;28;8844;-73
2021/09/21 09:28:44;;;;;;;;;19.00;14.50;;;;;;;;5046609;28;9650;-73
2021/09/21 09:31:12;;;;;;;;;16.25;14.50;;;;;;;;5046223;28;8769;-73
2021/09/21 09:33:43;;;;;;;;;15.00;12.75;;;;;;;;5043273;28;8883;-73
2021/09/21 09:36:12;;;;;;;;;13.25;11.75;;;;;;;;5044771;28;8863;-73
2021/09/21 09:38:43;;;;;;;;;12.50;12.50;;;;;;;;5043164;28;8848;-71
2021/09/21 09:41:16;;;;;;;;;11.00;11.00;;;;;;;;5028183;28;8860;-73
2021/09/21 09:43:45;;;;;;;;;14.75;13.00;;;;;;;;5038401;28;8832;-73
2021/09/21 09:46:18;;;;;;;;;14.75;11.75;;;;;;;;5045381;28;8961;-74
2021/09/21 09:48:46;;;;;;;;;19.25;16.00;;;;;;;;5047565;28;8872;-73
2021/09/21 09:51:20;;;;;;;;;15.25;15.25;;;;;;;;5040840;28;8860;-73
2021/09/21 09:53:49;;;;;;;;;9.75;8.75;;;;;;;;5043397;28;8880;-75
2021/09/21 09:56:17;;;;;;;;;13.75;13.75;;;;;;;;5043214;28;9690;-72
2021/09/21 09:58:44;;;;;;;;;15.25;15.25;;;;;;;;5042740;28;8910;-72
2021/09/21 10:01:11;;;;;;;;;12.25;12.25;;;;;;;;5046405;28;8820;-74
2021/09/21 10:03:40;;;;;;;;;16.50;13.50;;;;;;;;5045410;28;8856;-73
2021/09/21 10:06:07;;;;;;;;;16.25;15.50;;;;;;;;5044888;28;8852;-72
2021/09/21 10:08:36;;;;;;;;;16.00;13.50;;;;;;;;5045353;28;8883;-73
2021/09/21 10:11:04;;;;;;;;;19.00;19.00;;;;;;;;5045443;28;8882;-73
2021/09/21 10:13:31;;;;;;;;;14.75;13.75;;;;;;;;5024583;28;8849;-71
2021/09/21 10:15:59;;;;;;;;;18.00;17.00;;;;;;;;5044487;28;8868;-72
2021/09/21 10:18:27;;;;;;;;;20.75;19.00;;;;;;;;5028005;28;8902;-73
2021/09/21 10:20:58;;;;;;;;;22.00;19.75;;;;;;;;5044098;28;8987;-72
2021/09/21 10:23:36;;;;;;;;;15.75;15.75;;;;;;;;5046627;28;10601;-74
2021/09/21 10:26:13;;;;;;;;;21.25;18.75;;;;;;;;5026848;28;8868;-73
2021/09/21 10:28:40;;;;;;;;;18.00;17.50;;;;;;;;5041276;28;8840;-75
2021/09/21 10:31:13;;;;;;;;;11.25;11.25;;;;;;;;5045308;28;8919;-74
2021/09/21 10:33:41;;;;;;;;;17.50;17.25;;;;;;;;5045314;28;8851;-72
2021/09/21 10:36:17;;;;;;;;;16.80;16.80;;;;;;;;5045428;28;8897;-76
2021/09/21 10:38:57;;;;;;;;;20.75;20.75;;;;;;;;5043820;28;8824;-72
2021/09/21 10:41:24;;;;;;;;;20.50;20.50;;;;;;;;5043792;28;8882;-74
2021/09/21 10:44:04;;;;;;;;;20.50;20.50;;;;;;;;5044468;28;9652;-72
2021/09/21 10:46:43;;;;;;;;;18.50;18.50;;;;;;;;5042679;28;8871;-75
2021/09/21 10:49:11;;;;;;;;;18.40;17.00;;;;;;;;5041527;28;8880;-74
2021/09/21 10:51:48;;;;;;;;;18.80;18.60;;;;;;;;5043852;28;8880;-73
2021/09/21 10:54:17;;;;;;;;;20.50;20.50;;;;;;;;5039078;28;8895;-73
2021/09/21 10:56:45;;;;;;;;;19.40;18.60;;;;;;;;5045455;28;8852;-75
2021/09/21 10:59:18;;;;;;;;;21.75;19.50;;;;;;;;5044054;28;8840;-72
2021/09/21 11:01:49;;;;;;;;;21.20;19.00;;;;;;;;5041383;28;8945;-73
2021/09/21 11:04:17;;;;;;;;;16.40;15.00;;;;;;;;5041106;28;8864;-73
2021/09/21 11:06:44;;;;;;;;;18.20;18.20;;;;;;;;5041589;28;8844;-71
2021/09/21 11:09:12;;;;;;;;;19.25;19.00;;;;;;;;5043527;28;8913;-73
2021/09/21 11:11:40;;;;;;;;;17.20;17.00;;;;;;;;5044184;28;8974;-74
2021/09/21 11:14:08;;;;;;;;;15.40;15.40;;;;;;;;5043330;28;8859;-74
2021/09/21 11:16:36;;;;;;;;;21.00;19.40;;;;;;;;5044143;28;8856;-73
2021/09/21 11:19:05;;;;;;;;;18.80;18.80;;;;;;;;5027693;28;8844;-73
2021/09/21 11:21:32;;;;;;;;;25.40;22.40;;;;;;;;5044140;28;8891;-73
2021/09/21 11:24:00;;;;;;;;;21.40;20.40;;;;;;;;5043786;28;9025;-73
2021/09/21 11:26:27;;;;;;;;;21.20;21.20;;;;;;;;5044206;28;8888;-73
2021/09/21 11:28:56;;;;;;;;;21.20;17.20;;;;;;;;5042254;28;8881;-73
2021/09/21 11:31:24;;;;;;;;;21.60;20.20;;;;;;;;5034734;28;8827;-75
2021/09/21 11:33:54;;;;;;;;;20.40;19.60;;;;;;;;5044694;28;8974;-76
2021/09/21 11:36:21;;;;;;;;;20.20;20.20;;;;;;;;5043854;28;8860;-74
2021/09/21 11:38:50;;;;;;;;;12.80;12.00;;;;;;;;5039400;28;8862;-75
2021/09/21 11:41:21;;;;;;;;;12.00;12.00;;;;;;;;5033565;28;8846;-73
2021/09/21 11:43:49;;;;;;;;;17.40;17.40;;;;;;;;5038358;28;8962;-73
2021/09/21 11:46:17;;;;;;;;;19.00;17.60;;;;;;;;5043119;28;8875;-73
2021/09/21 11:48:44;;;;;;;;;19.00;17.00;;;;;;;;5044193;28;8880;-73
2021/09/21 11:51:13;;;;;;;;;24.00;22.60;;;;;;;;5044742;28;8890;-73
2021/09/21 11:53:42;;;;;;;;;17.40;17.40;;;;;;;;5045142;28;8860;-73
2021/09/21 11:56:10;;;;;;;;;17.60;17.60;;;;;;;;5023425;28;8939;-74
2021/09/21 11:58:37;;;;;;;;;17.40;15.60;;;;;;;;5022788;28;8864;-73
2021/09/21 12:01:06;;;;;;;;;20.00;20.00;;;;;;;;5023044;28;8844;-73
2021/09/21 12:03:35;;;;;;;;;17.40;15.40;;;;;;;;5024191;28;8866;-73
2021/09/21 12:06:04;;;;;;;;;15.20;14.60;;;;;;;;5022475;28;8861;-75
2021/09/21 12:08:33;;;;;;;;;20.20;20.20;;;;;;;;5023817;28;8877;-73
2021/09/21 12:11:06;;;;;;;;;17.00;16.60;;;;;;;;5024229;28;8861;-73
2021/09/21 12:13:34;;;;;;;;;20.60;18.40;;;;;;;;5022481;28;8876;-73
2021/09/21 12:16:03;;;;;;;;;18.20;17.00;;;;;;;;5019187;28;9682;-73
2021/09/21 12:18:32;;;;;;;;;21.60;18.40;;;;;;;;5017236;28;8999;-73
2021/09/21 12:21:03;;;;;;;;;14.20;14.20;;;;;;;;5020240;28;8893;-72
2021/09/21 12:23:32;;;;;;;;;18.80;18.80;;;;;;;;5023419;28;8908;-72
2021/09/21 12:26:01;;;;;;;;;14.00;14.00;;;;;;;;5024120;28;8899;-73
2021/09/21 12:28:31;;;;;;;;;16.00;16.00;;;;;;;;5024261;28;8895;-73
2021/09/21 12:31:00;;;;;;;;;17.00;17.00;;;;;;;;5017647;28;8842;-73
2021/09/21 12:33:27;;;;;;;;;15.60;15.60;;;;;;;;5025008;28;8881;-73
2021/09/21 12:35:55;;;;;;;;;18.80;18.80;;;;;;;;5019205;28;8939;-73
2021/09/21 12:38:26;;;;;;;;;17.20;15.80;;;;;;;;5023476;28;8911;-73
2021/09/21 12:40:55;;;;;;;;;18.60;17.00;;;;;;;;5021565;28;8861;-73
2021/09/21 12:43:24;;;;;;;;;15.60;15.60;;;;;;;;5023063;28;8888;-73
2021/09/21 12:45:54;;;;;;;;;19.40;17.80;;;;;;;;5020486;28;8873;-73
2021/09/21 12:48:28;;;;;;;;;17.80;15.00;;;;;;;;5018563;28;8950;-73
2021/09/21 12:50:57;;;;;;;;;22.40;17.80;;;;;;;;5023723;28;8968;-73
2021/09/21 12:53:26;;;;;;;;;20.60;19.60;;;;;;;;5019494;28;8873;-72
2021/09/21 12:55:56;;;;;;;;;17.40;17.40;;;;;;;;5041624;28;8871;-73
2021/09/21 12:58:24;;;;;;;;;17.60;17.20;;;;;;;;5042411;28;9648;-73
2021/09/21 13:00:52;;;;;;;;;20.60;18.00;;;;;;;;5041141;28;8877;-73
2021/09/21 13:03:21;;;;;;;;;18.60;18.60;;;;;;;;5043019;28;8844;-73
2021/09/21 13:05:48;;;;;;;;;23.20;15.40;;;;;;;;5042616;28;8905;-73
2021/09/21 13:08:15;;;;;;;;;15.00;13.20;;;;;;;;5043316;28;9038;-73
2021/09/21 13:10:45;;;;;;;;;18.40;16.60;;;;;;;;5042062;28;8872;-73
2021/09/21 13:13:13;;;;;;;;;17.20;15.80;;;;;;;;5042247;28;9435;-73
2021/09/21 13:15:42;;;;;;;;;24.40;21.00;;;;;;;;5025682;28;8990;-73
2021/09/21 13:18:10;;;;;;;;;15.00;14.20;;;;;;;;5043117;28;8925;-73
2021/09/21 13:20:38;;;;;;;;;15.40;15.40;;;;;;;;5041994;28;8855;-73
2021/09/21 13:23:07;;;;;;;;;19.60;17.40;;;;;;;;5043090;28;9576;-73
2021/09/21 13:25:35;;;;;;;;;18.20;16.60;;;;;;;;5031789;28;8862;-73
2021/09/21 13:28:05;;;;;;;;;17.60;16.60;;;;;;;;5040056;28;8835;-73
2021/09/21 13:30:33;;;;;;;;;17.80;16.40;;;;;;;;5036323;28;8807;-73
2021/09/21 13:33:01;;;;;;;;;12.80;12.80;;;;;;;;5042738;28;8872;-73
2021/09/21 13:35:28;;;;;;;;;20.20;18.00;;;;;;;;5043302;28;8880;-73
2021/09/21 13:37:57;;;;;;;;;15.40;15.40;;;;;;;;5042007;28;8902;-74
2021/09/21 13:40:24;;;;;;;;;14.40;14.40;;;;;;;;5040744;28;8879;-75
2021/09/21 13:42:54;;;;;;;;;16.40;14.60;;;;;;;;5043797;28;8916;-73
2021/09/21 13:45:24;;;;;;;;;18.20;16.40;;;;;;;;5036961;28;8917;-73
2021/09/21 13:47:53;;;;;;;;;16.20;16.20;;;;;;;;5040653;28;8860;-73
2021/09/21 13:50:20;;;;;;;;;17.40;16.60;;;;;;;;5041047;28;8860;-73
2021/09/21 13:52:48;;;;;;;;;20.40;19.20;;;;;;;;5043687;28;8918;-73
2021/09/21 13:55:16;;;;;;;;;15.00;15.00;;;;;;;;5042702;28;8884;-73
2021/09/21 13:57:44;;;;;;;;;20.40;19.00;;;;;;;;5043358;28;9677;-74
2021/09/21 14:00:14;;;;;;;;;21.20;18.20;;;;;;;;5042169;28;8848;-73
2021/09/21 14:02:44;;;;;;;;;20.40;18.80;;;;;;;;5041424;28;8972;-72
2021/09/21 14:05:12;;;;;;;;;18.40;17.80;;;;;;;;5043493;28;8848;-72
2021/09/21 14:07:39;;;;;;;;;19.80;18.20;;;;;;;;5039148;28;9777;-74
2021/09/21 14:10:08;;;;;;;;;19.20;19.20;;;;;;;;5042369;28;8886;-74
2021/09/21 14:12:36;;;;;;;;;15.60;15.60;;;;;;;;5046029;28;8840;-74
2021/09/21 14:15:04;;;;;;;;;20.80;18.60;;;;;;;;5045404;28;8848;-75
2021/09/21 14:17:45;;;;;;;;;18.40;18.40;;;;;;;;5045685;28;8879;-75
2021/09/21 14:20:14;;;;;;;;;18.40;17.80;;;;;;;;5038263;28;9730;-74
2021/09/21 14:22:42;;;;;;;;;21.40;19.00;;;;;;;;5040797;28;9003;-74
2021/09/21 14:25:09;;;;;;;;;17.00;17.00;;;;;;;;5043991;28;8870;-74
2021/09/21 14:27:37;;;;;;;;;17.40;15.80;;;;;;;;5046071;28;8911;-75
2021/09/21 14:30:08;;;;;;;;;16.60;16.60;;;;;;;;5044546;28;9574;-74
2021/09/21 14:32:36;;;;;;;;;19.80;19.80;;;;;;;;5046088;28;9049;-75
2021/09/21 14:35:06;;;;;;;;;14.80;14.80;;;;;;;;5046527;28;8883;-74
2021/09/21 14:37:33;;;;;;;;;19.40;17.80;;;;;;;;5031870;28;8886;-74
2021/09/21 14:40:00;;;;;;;;;14.40;14.40;;;;;;;;5028305;28;8856;-74
2021/09/21 14:42:28;;;;;;;;;18.20;15.60;;;;;;;;5044517;28;8863;-74